sensor_id;sensor_type;location;lat;lon;timestamp;temperature;humidity
4207;DHT22;2117;47.972;7.830;2023-05-17T03:00:34;6.80;99.90
4207;DHT22;2117;47.972;7.830;2023-05-17T03:03:00;6.70;99.90
4207;DHT22;2117;47.972;7.830;2023-05-17T03:05:26;6.80;99.90
4207;DHT22;2117;47.972;7.830;2023-05-17T03:07:51;6.80;99.90
4207;DHT22;2117;47.972;7.830;2023-05-17T03:10:17;6.80;99.90
4207;DHT22;2117;47.972;7.830;2023-05-17T03:12:43;6.70;99.90
4207;DHT22;2117;47.972;7.830;2023-05-17T03:15:09;6.70;99.90
4207;DHT22;2117;47.972;7.830;2023-05-17T03:17:34;6.70;99.90
4207;DHT22;2117;47.972;7.830;2023-05-17T03:20:01;6.70;99.90
4207;DHT22;2117;47.972;7.830;2023-05-17T03:22:26;6.70;99.90
4207;DHT22;2117;47.972;7.830;2023-05-17T03:24:52;6.70;99.90
4207;DHT22;2117;47.972;7.830;2023-05-17T03:27:18;6.70;99.90
4207;DHT22;2117;47.972;7.830;2023-05-17T03:29:43;6.70;99.90
4207;DHT22;2117;47.972;7.830;2023-05-17T03:32:09;6.70;99.90
4207;DHT22;2117;47.972;7.830;2023-05-17T03:34:34;6.70;99.90
4207;DHT22;2117;47.972;7.830;2023-05-17T03:37:00;6.70;99.90
4207;DHT22;2117;47.972;7.830;2023-05-17T03:39:25;6.70;99.90
4207;DHT22;2117;47.972;7.830;2023-05-17T03:41:51;6.70;99.90
4207;DHT22;2117;47.972;7.830;2023-05-17T03:44:17;6.70;99.90
4207;DHT22;2117;47.972;7.830;2023-05-17T03:46:42;6.70;99.90
4207;DHT22;2117;47.972;7.830;2023-05-17T03:49:08;6.60;99.90
4207;DHT22;2117;47.972;7.830;2023-05-17T03:51:33;6.70;99.90
4207;DHT22;2117;47.972;7.830;2023-05-17T03:54:00;6.70;99.90
4207;DHT22;2117;47.972;7.830;2023-05-17T03:56:25;6.80;99.90
4207;DHT22;2117;47.972;7.830;2023-05-17T03:58:51;6.90;99.90
4207;DHT22;2117;47.972;7.830;2023-05-17T04:01:17;6.90;99.90
4207;DHT22;2117;47.972;7.830;2023-05-17T04:03:45;6.90;99.90
4207;DHT22;2117;47.972;7.830;2023-05-17T04:06:11;6.90;99.90
4207;DHT22;2117;47.972;7.830;2023-05-17T04:08:37;7.00;99.90
4207;DHT22;2117;47.972;7.830;2023-05-17T04:11:03;7.00;99.90
4207;DHT22;2117;47.972;7.830;2023-05-17T04:13:35;7.10;99.90
4207;DHT22;2117;47.972;7.830;2023-05-17T04:16:04;7.20;99.90
4207;DHT22;2117;47.972;7.830;2023-05-17T04:18:32;7.10;99.90
4207;DHT22;2117;47.972;7.830;2023-05-17T04:20:57;7.20;99.90
4207;DHT22;2117;47.972;7.830;2023-05-17T04:23:23;7.20;99.90
4207;DHT22;2117;47.972;7.830;2023-05-17T04:28:15;7.20;99.90
4207;DHT22;2117;47.972;7.830;2023-05-17T04:30:45;7.30;99.90
4207;DHT22;2117;47.972;7.830;2023-05-17T04:33:11;7.30;99.90
4207;DHT22;2117;47.972;7.830;2023-05-17T04:35:39;7.20;99.90
4207;DHT22;2117;47.972;7.830;2023-05-17T04:38:06;7.20;99.90
4207;DHT22;2117;47.972;7.830;2023-05-17T04:40:32;7.30;99.90
4207;DHT22;2117;47.972;7.830;2023-05-17T04:42:57;7.20;99.90
4207;DHT22;2117;47.972;7.830;2023-05-17T04:45:23;7.20;99.90
4207;DHT22;2117;47.972;7.830;2023-05-17T04:47:49;7.10;99.90
4207;DHT22;2117;47.972;7.830;2023-05-17T04:50:16;7.10;99.90
4207;DHT22;2117;47.972;7.830;2023-05-17T04:52:42;7.10;99.90
4207;DHT22;2117;47.972;7.830;2023-05-17T04:55:08;7.20;99.90
4207;DHT22;2117;47.972;7.830;2023-05-17T04:57:33;7.20;99.90
4207;DHT22;2117;47.972;7.830;2023-05-17T05:00:00;7.30;99.90
4207;DHT22;2117;47.972;7.830;2023-05-17T05:02:26;7.40;99.90
4207;DHT22;2117;47.972;7.830;2023-05-17T05:04:51;7.40;99.90
4207;DHT22;2117;47.972;7.830;2023-05-17T05:07:17;7.40;99.90
4207;DHT22;2117;47.972;7.830;2023-05-17T05:09:42;7.50;99.90
4207;DHT22;2117;47.972;7.830;2023-05-17T05:12:08;7.50;99.90
4207;DHT22;2117;47.972;7.830;2023-05-17T05:14:34;7.60;99.90
4207;DHT22;2117;47.972;7.830;2023-05-17T05:17:00;7.60;99.90
4207;DHT22;2117;47.972;7.830;2023-05-17T05:19:25;7.70;99.90
4207;DHT22;2117;47.972;7.830;2023-05-17T05:21:51;7.70;99.90
4207;DHT22;2117;47.972;7.830;2023-05-17T05:24:16;7.70;99.90
4207;DHT22;2117;47.972;7.830;2023-05-17T05:26:42;7.70;99.90
4207;DHT22;2117;47.972;7.830;2023-05-17T05:29:07;7.80;99.90
4207;DHT22;2117;47.972;7.830;2023-05-17T05:31:33;7.80;99.90
4207;DHT22;2117;47.972;7.830;2023-05-17T05:33:58;7.80;99.90
4207;DHT22;2117;47.972;7.830;2023-05-17T05:36:24;7.90;99.90
4207;DHT22;2117;47.972;7.830;2023-05-17T05:38:49;7.90;99.90
4207;DHT22;2117;47.972;7.830;2023-05-17T05:41:18;7.90;99.90
4207;DHT22;2117;47.972;7.830;2023-05-17T05:43:43;8.00;99.90
4207;DHT22;2117;47.972;7.830;2023-05-17T05:46:09;8.00;99.90
4207;DHT22;2117;47.972;7.830;2023-05-17T05:48:34;8.10;99.90
4207;DHT22;2117;47.972;7.830;2023-05-17T05:51:03;8.10;99.90
4207;DHT22;2117;47.972;7.830;2023-05-17T05:53:29;8.10;99.90
4207;DHT22;2117;47.972;7.830;2023-05-17T05:55:54;8.20;99.90
4207;DHT22;2117;47.972;7.830;2023-05-17T05:58:20;8.20;99.90
4207;DHT22;2117;47.972;7.830;2023-05-17T06:00:46;8.30;99.90
4207;DHT22;2117;47.972;7.830;2023-05-17T06:03:13;8.30;99.90
4207;DHT22;2117;47.972;7.830;2023-05-17T06:05:38;8.40;99.90
4207;DHT22;2117;47.972;7.830;2023-05-17T06:08:04;8.50;99.90
4207;DHT22;2117;47.972;7.830;2023-05-17T06:10:31;8.50;99.90
4207;DHT22;2117;47.972;7.830;2023-05-17T06:12:56;8.60;99.90
4207;DHT22;2117;47.972;7.830;2023-05-17T06:15:22;8.70;99.90
4207;DHT22;2117;47.972;7.830;2023-05-17T06:17:47;8.70;99.90
4207;DHT22;2117;47.972;7.830;2023-05-17T06:20:13;8.80;99.90
4207;DHT22;2117;47.972;7.830;2023-05-17T06:22:39;8.90;99.90
4207;DHT22;2117;47.972;7.830;2023-05-17T06:25:05;9.00;99.90
4207;DHT22;2117;47.972;7.830;2023-05-17T06:27:31;9.10;99.90
4207;DHT22;2117;47.972;7.830;2023-05-17T06:29:58;9.10;99.90
4207;DHT22;2117;47.972;7.830;2023-05-17T06:34:50;9.20;99.90
4207;DHT22;2117;47.972;7.830;2023-05-17T06:37:15;9.30;99.90
4207;DHT22;2117;47.972;7.830;2023-05-17T06:39:41;9.40;99.90
4207;DHT22;2117;47.972;7.830;2023-05-17T06:42:07;9.50;99.90
4207;DHT22;2117;47.972;7.830;2023-05-17T06:44:32;9.60;99.90
4207;DHT22;2117;47.972;7.830;2023-05-17T06:46:58;9.60;99.90
4207;DHT22;2117;47.972;7.830;2023-05-17T06:49:25;9.80;99.90
4207;DHT22;2117;47.972;7.830;2023-05-17T06:51:51;9.80;99.90
4207;DHT22;2117;47.972;7.830;2023-05-17T06:54:18;9.90;99.90
4207;DHT22;2117;47.972;7.830;2023-05-17T06:56:44;10.00;99.90
4207;DHT22;2117;47.972;7.830;2023-05-17T06:59:10;10.10;99.90
4207;DHT22;2117;47.972;7.830;2023-05-17T07:01:36;10.20;99.90
4207;DHT22;2117;47.972;7.830;2023-05-17T07:04:01;10.30;99.90
4207;DHT22;2117;47.972;7.830;2023-05-17T07:06:27;10.30;99.90
4207;DHT22;2117;47.972;7.830;2023-05-17T07:08:53;10.40;99.90
4207;DHT22;2117;47.972;7.830;2023-05-17T07:11:18;10.50;99.90
4207;DHT22;2117;47.972;7.830;2023-05-17T07:13:44;10.50;99.90
4207;DHT22;2117;47.972;7.830;2023-05-17T07:16:09;10.60;99.90
4207;DHT22;2117;47.972;7.830;2023-05-17T07:18:35;10.70;99.90
4207;DHT22;2117;47.972;7.830;2023-05-17T07:21:00;10.70;99.90
4207;DHT22;2117;47.972;7.830;2023-05-17T07:23:26;10.80;99.90
4207;DHT22;2117;47.972;7.830;2023-05-17T07:25:52;10.80;99.90
4207;DHT22;2117;47.972;7.830;2023-05-17T07:28:17;10.80;99.90
4207;DHT22;2117;47.972;7.830;2023-05-17T07:30:43;10.90;99.90
4207;DHT22;2117;47.972;7.830;2023-05-17T07:33:08;10.80;99.90
4207;DHT22;2117;47.972;7.830;2023-05-17T07:35:34;10.90;99.90
4207;DHT22;2117;47.972;7.830;2023-05-17T07:37:59;10.80;99.90
4207;DHT22;2117;47.972;7.830;2023-05-17T07:40:25;10.80;99.90
4207;DHT22;2117;47.972;7.830;2023-05-17T07:42:51;10.90;99.90
4207;DHT22;2117;47.972;7.830;2023-05-17T07:45:17;10.80;99.90
4207;DHT22;2117;47.972;7.830;2023-05-17T07:47:43;10.80;99.90
4207;DHT22;2117;47.972;7.830;2023-05-17T07:50:09;10.90;99.90
4207;DHT22;2117;47.972;7.830;2023-05-17T07:52:35;10.90;99.90
4207;DHT22;2117;47.972;7.830;2023-05-17T07:55:00;11.00;99.90
4207;DHT22;2117;47.972;7.830;2023-05-17T07:57:26;11.10;99.90
4207;DHT22;2117;47.972;7.830;2023-05-17T07:59:52;11.10;99.90
4207;DHT22;2117;47.972;7.830;2023-05-17T08:02:17;11.10;99.90
4207;DHT22;2117;47.972;7.830;2023-05-17T08:04:43;11.20;99.90
4207;DHT22;2117;47.972;7.830;2023-05-17T08:07:09;11.30;99.90
4207;DHT22;2117;47.972;7.830;2023-05-17T08:09:35;11.40;99.90
4207;DHT22;2117;47.972;7.830;2023-05-17T08:12:00;11.50;99.90
4207;DHT22;2117;47.972;7.830;2023-05-17T08:14:26;11.60;99.90
4207;DHT22;2117;47.972;7.830;2023-05-17T08:16:52;11.60;99.90
4207;DHT22;2117;47.972;7.830;2023-05-17T08:19:17;11.70;99.90
4207;DHT22;2117;47.972;7.830;2023-05-17T08:21:43;11.80;99.90
4207;DHT22;2117;47.972;7.830;2023-05-17T08:24:10;11.90;99.90
4207;DHT22;2117;47.972;7.830;2023-05-17T08:26:36;11.90;99.90
4207;DHT22;2117;47.972;7.830;2023-05-17T08:29:03;12.00;99.90
4207;DHT22;2117;47.972;7.830;2023-05-17T08:31:32;12.00;99.90
4207;DHT22;2117;47.972;7.830;2023-05-17T08:33:58;12.10;99.90
4207;DHT22;2117;47.972;7.830;2023-05-17T08:36:23;12.20;99.90
4207;DHT22;2117;47.972;7.830;2023-05-17T08:38:49;12.20;99.90
4207;DHT22;2117;47.972;7.830;2023-05-17T08:41:15;12.40;99.90
4207;DHT22;2117;47.972;7.830;2023-05-17T08:43:41;12.60;99.90
4207;DHT22;2117;47.972;7.830;2023-05-17T08:46:09;12.90;99.90
4207;DHT22;2117;47.972;7.830;2023-05-17T08:48:36;12.90;99.90
4207;DHT22;2117;47.972;7.830;2023-05-17T08:51:06;13.00;99.90
4207;DHT22;2117;47.972;7.830;2023-05-17T08:53:33;13.10;99.90
4207;DHT22;2117;47.972;7.830;2023-05-17T08:56:00;13.10;99.90
4207;DHT22;2117;47.972;7.830;2023-05-17T08:58:33;13.10;99.90
4207;DHT22;2117;47.972;7.830;2023-05-17T09:01:03;13.00;99.90
4207;DHT22;2117;47.972;7.830;2023-05-17T09:03:31;13.00;99.90
4207;DHT22;2117;47.972;7.830;2023-05-17T09:05:59;13.20;99.90
4207;DHT22;2117;47.972;7.830;2023-05-17T09:08:25;13.20;99.90
4207;DHT22;2117;47.972;7.830;2023-05-17T09:10:52;13.20;99.90
4207;DHT22;2117;47.972;7.830;2023-05-17T09:13:18;13.20;99.90
4207;DHT22;2117;47.972;7.830;2023-05-17T09:15:46;13.20;99.90
4207;DHT22;2117;47.972;7.830;2023-05-17T09:18:12;13.10;99.90
4207;DHT22;2117;47.972;7.830;2023-05-17T09:20:38;13.00;99.90
4207;DHT22;2117;47.972;7.830;2023-05-17T09:23:06;13.10;99.90
4207;DHT22;2117;47.972;7.830;2023-05-17T09:25:34;13.30;99.90
4207;DHT22;2117;47.972;7.830;2023-05-17T09:28:02;13.40;99.90
4207;DHT22;2117;47.972;7.830;2023-05-17T09:30:29;13.40;99.90
4207;DHT22;2117;47.972;7.830;2023-05-17T09:32:56;13.40;99.90
4207;DHT22;2117;47.972;7.830;2023-05-17T09:35:31;13.50;99.90
4207;DHT22;2117;47.972;7.830;2023-05-17T09:40:31;13.60;99.90
4207;DHT22;2117;47.972;7.830;2023-05-17T09:42:58;13.80;99.90
4207;DHT22;2117;47.972;7.830;2023-05-17T09:45:24;13.90;99.90
4207;DHT22;2117;47.972;7.830;2023-05-17T09:47:50;14.00;99.90
4207;DHT22;2117;47.972;7.830;2023-05-17T09:50:20;14.00;99.90
4207;DHT22;2117;47.972;7.830;2023-05-17T09:52:46;14.10;99.90
4207;DHT22;2117;47.972;7.830;2023-05-17T09:55:12;14.20;99.90
4207;DHT22;2117;47.972;7.830;2023-05-17T09:57:38;14.30;99.90
4207;DHT22;2117;47.972;7.830;2023-05-17T10:00:05;14.40;99.90
4207;DHT22;2117;47.972;7.830;2023-05-17T10:02:37;14.50;99.90
4207;DHT22;2117;47.972;7.830;2023-05-17T10:05:04;14.60;99.90
4207;DHT22;2117;47.972;7.830;2023-05-17T10:07:32;14.80;99.90
4207;DHT22;2117;47.972;7.830;2023-05-17T10:09:59;14.70;99.90
4207;DHT22;2117;47.972;7.830;2023-05-17T10:12:27;14.70;99.90
4207;DHT22;2117;47.972;7.830;2023-05-17T10:14:55;14.70;99.90
4207;DHT22;2117;47.972;7.830;2023-05-17T10:17:25;14.70;99.90
4207;DHT22;2117;47.972;7.830;2023-05-17T10:19:52;14.70;99.90
4207;DHT22;2117;47.972;7.830;2023-05-17T10:22:20;14.90;99.90
4207;DHT22;2117;47.972;7.830;2023-05-17T10:24:47;14.90;99.90
4207;DHT22;2117;47.972;7.830;2023-05-17T10:27:12;14.90;99.90
4207;DHT22;2117;47.972;7.830;2023-05-17T10:29:39;15.10;99.90
4207;DHT22;2117;47.972;7.830;2023-05-17T10:32:06;15.20;99.90
4207;DHT22;2117;47.972;7.830;2023-05-17T10:34:33;15.40;99.90
4207;DHT22;2117;47.972;7.830;2023-05-17T10:37:01;15.30;99.90
4207;DHT22;2117;47.972;7.830;2023-05-17T10:39:27;15.30;99.90
4207;DHT22;2117;47.972;7.830;2023-05-17T10:41:55;15.30;99.90
4207;DHT22;2117;47.972;7.830;2023-05-17T10:44:21;15.60;99.90
4207;DHT22;2117;47.972;7.830;2023-05-17T10:46:54;15.80;99.90
4207;DHT22;2117;47.972;7.830;2023-05-17T10:49:23;15.90;99.90
4207;DHT22;2117;47.972;7.830;2023-05-17T10:51:50;16.00;99.90
4207;DHT22;2117;47.972;7.830;2023-05-17T10:54:16;16.10;99.90
4207;DHT22;2117;47.972;7.830;2023-05-17T10:56:52;16.20;99.90
4207;DHT22;2117;47.972;7.830;2023-05-17T10:59:23;16.20;99.90
4207;DHT22;2117;47.972;7.830;2023-05-17T11:04:25;16.50;99.90
4207;DHT22;2117;47.972;7.830;2023-05-17T11:06:52;16.50;99.90
4207;DHT22;2117;47.972;7.830;2023-05-17T11:09:21;16.50;99.90
4207;DHT22;2117;47.972;7.830;2023-05-17T11:12:08;16.70;99.90
4207;DHT22;2117;47.972;7.830;2023-05-17T11:14:50;16.50;99.90
4207;DHT22;2117;47.972;7.830;2023-05-17T11:17:22;16.40;99.90
4207;DHT22;2117;47.972;7.830;2023-05-17T11:19:54;16.30;99.90
4207;DHT22;2117;47.972;7.830;2023-05-17T11:22:24;16.20;99.90
4207;DHT22;2117;47.972;7.830;2023-05-17T11:24:51;16.10;99.90
4207;DHT22;2117;47.972;7.830;2023-05-17T11:27:19;16.20;99.90
4207;DHT22;2117;47.972;7.830;2023-05-17T11:29:45;16.20;99.90
4207;DHT22;2117;47.972;7.830;2023-05-17T11:32:12;16.10;99.90
4207;DHT22;2117;47.972;7.830;2023-05-17T11:34:38;16.00;99.90
4207;DHT22;2117;47.972;7.830;2023-05-17T11:37:03;15.80;99.90
4207;DHT22;2117;47.972;7.830;2023-05-17T11:39:34;15.70;99.90
4207;DHT22;2117;47.972;7.830;2023-05-17T11:41:59;15.90;99.90
4207;DHT22;2117;47.972;7.830;2023-05-17T11:44:30;16.20;99.90
4207;DHT22;2117;47.972;7.830;2023-05-17T11:47:14;16.40;99.90
4207;DHT22;2117;47.972;7.830;2023-05-17T11:49:40;16.40;99.90
4207;DHT22;2117;47.972;7.830;2023-05-17T11:52:07;16.30;99.90
4207;DHT22;2117;47.972;7.830;2023-05-17T11:54:33;16.20;99.90
4207;DHT22;2117;47.972;7.830;2023-05-17T11:57:00;16.30;99.90
4207;DHT22;2117;47.972;7.830;2023-05-17T11:59:35;16.30;99.90
4207;DHT22;2117;47.972;7.830;2023-05-17T12:02:02;16.20;99.90
4207;DHT22;2117;47.972;7.830;2023-05-17T12:04:28;16.20;99.90
4207;DHT22;2117;47.972;7.830;2023-05-17T12:06:54;16.20;99.90
4207;DHT22;2117;47.972;7.830;2023-05-17T12:09:21;16.30;99.90
4207;DHT22;2117;47.972;7.830;2023-05-17T12:11:47;16.50;99.90
4207;DHT22;2117;47.972;7.830;2023-05-17T12:14:17;16.50;99.90
4207;DHT22;2117;47.972;7.830;2023-05-17T12:16:43;16.60;99.90
4207;DHT22;2117;47.972;7.830;2023-05-17T12:19:20;16.60;99.90
4207;DHT22;2117;47.972;7.830;2023-05-17T12:21:46;16.70;99.90
4207;DHT22;2117;47.972;7.830;2023-05-17T12:24:13;16.70;99.90
4207;DHT22;2117;47.972;7.830;2023-05-17T12:26:45;16.90;99.90
4207;DHT22;2117;47.972;7.830;2023-05-17T12:29:12;16.90;99.90
4207;DHT22;2117;47.972;7.830;2023-05-17T12:31:47;17.10;99.90
4207;DHT22;2117;47.972;7.830;2023-05-17T12:34:15;17.00;99.90
4207;DHT22;2117;47.972;7.830;2023-05-17T12:36:42;17.10;99.90
4207;DHT22;2117;47.972;7.830;2023-05-17T12:39:11;17.20;99.90
4207;DHT22;2117;47.972;7.830;2023-05-17T12:41:38;17.40;99.90
4207;DHT22;2117;47.972;7.830;2023-05-17T12:44:08;17.70;99.90
4207;DHT22;2117;47.972;7.830;2023-05-17T12:46:34;18.50;99.90
4207;DHT22;2117;47.972;7.830;2023-05-17T12:49:04;18.60;99.90
4207;DHT22;2117;47.972;7.830;2023-05-17T12:51:39;18.70;99.90
4207;DHT22;2117;47.972;7.830;2023-05-17T12:54:05;18.90;99.90
4207;DHT22;2117;47.972;7.830;2023-05-17T12:56:31;19.20;99.90
4207;DHT22;2117;47.972;7.830;2023-05-17T13:01:35;19.30;99.90
4207;DHT22;2117;47.972;7.830;2023-05-17T13:04:02;19.30;99.90
4207;DHT22;2117;47.972;7.830;2023-05-17T13:06:28;18.50;99.90
4207;DHT22;2117;47.972;7.830;2023-05-17T13:09:00;18.30;99.90
4207;DHT22;2117;47.972;7.830;2023-05-17T13:11:26;18.00;99.90
4207;DHT22;2117;47.972;7.830;2023-05-17T13:13:51;17.80;99.90
4207;DHT22;2117;47.972;7.830;2023-05-17T13:16:26;17.80;99.90
4207;DHT22;2117;47.972;7.830;2023-05-17T13:18:52;17.80;99.90
4207;DHT22;2117;47.972;7.830;2023-05-17T13:21:19;17.90;99.90
4207;DHT22;2117;47.972;7.830;2023-05-17T13:23:46;18.00;99.90
4207;DHT22;2117;47.972;7.830;2023-05-17T13:26:12;18.30;99.90
4207;DHT22;2117;47.972;7.830;2023-05-17T13:28:39;18.40;99.90
4207;DHT22;2117;47.972;7.830;2023-05-17T13:31:04;18.50;99.90
4207;DHT22;2117;47.972;7.830;2023-05-17T13:33:30;18.40;99.90
4207;DHT22;2117;47.972;7.830;2023-05-17T13:35:56;18.20;99.90
4207;DHT22;2117;47.972;7.830;2023-05-17T13:38:21;18.10;99.90
4207;DHT22;2117;47.972;7.830;2023-05-17T13:40:47;18.00;99.90
4207;DHT22;2117;47.972;7.830;2023-05-17T13:43:12;17.90;99.90
4207;DHT22;2117;47.972;7.830;2023-05-17T13:45:39;17.80;99.90
4207;DHT22;2117;47.972;7.830;2023-05-17T13:48:05;17.60;99.90
4207;DHT22;2117;47.972;7.830;2023-05-17T13:50:31;17.50;99.90
4207;DHT22;2117;47.972;7.830;2023-05-17T13:52:56;17.60;99.90
4207;DHT22;2117;47.972;7.830;2023-05-17T13:55:22;18.20;99.90
4207;DHT22;2117;47.972;7.830;2023-05-17T13:57:48;18.60;99.90
4207;DHT22;2117;47.972;7.830;2023-05-17T14:00:14;18.70;99.90
4207;DHT22;2117;47.972;7.830;2023-05-17T14:02:40;18.60;99.90
4207;DHT22;2117;47.972;7.830;2023-05-17T14:05:06;18.60;99.90
4207;DHT22;2117;47.972;7.830;2023-05-17T14:07:34;18.60;99.90
4207;DHT22;2117;47.972;7.830;2023-05-17T14:10:00;18.50;99.90
4207;DHT22;2117;47.972;7.830;2023-05-17T14:12:25;18.40;99.90
4207;DHT22;2117;47.972;7.830;2023-05-17T14:14:51;18.30;99.90
4207;DHT22;2117;47.972;7.830;2023-05-17T14:17:16;18.00;99.90
4207;DHT22;2117;47.972;7.830;2023-05-17T14:19:42;17.90;99.90
4207;DHT22;2117;47.972;7.830;2023-05-17T14:22:07;17.90;99.90
4207;DHT22;2117;47.972;7.830;2023-05-17T14:24:33;17.80;99.90
4207;DHT22;2117;47.972;7.830;2023-05-17T14:26:58;17.50;99.90
4207;DHT22;2117;47.972;7.830;2023-05-17T14:29:24;17.50;99.90
4207;DHT22;2117;47.972;7.830;2023-05-17T14:31:50;17.40;99.90
4207;DHT22;2117;47.972;7.830;2023-05-17T14:34:16;17.40;99.90
4207;DHT22;2117;47.972;7.830;2023-05-17T14:36:41;17.40;99.90
4207;DHT22;2117;47.972;7.830;2023-05-17T14:39:07;17.40;99.90
4207;DHT22;2117;47.972;7.830;2023-05-17T14:41:32;17.50;99.90
4207;DHT22;2117;47.972;7.830;2023-05-17T14:43:58;18.00;99.90
4207;DHT22;2117;47.972;7.830;2023-05-17T14:46:23;18.20;99.90
4207;DHT22;2117;47.972;7.830;2023-05-17T14:48:49;18.30;99.90
4207;DHT22;2117;47.972;7.830;2023-05-17T14:51:17;18.70;99.90
4207;DHT22;2117;47.972;7.830;2023-05-17T14:53:43;19.30;99.90
4207;DHT22;2117;47.972;7.830;2023-05-17T14:56:08;19.80;99.90
4207;DHT22;2117;47.972;7.830;2023-05-17T14:58:34;19.70;99.90
4207;DHT22;2117;47.972;7.830;2023-05-17T15:01:00;19.90;99.90
4207;DHT22;2117;47.972;7.830;2023-05-17T15:03:25;19.70;99.90
4207;DHT22;2117;47.972;7.830;2023-05-17T15:05:55;18.80;99.90
4207;DHT22;2117;47.972;7.830;2023-05-17T15:08:21;18.80;99.90
4207;DHT22;2117;47.972;7.830;2023-05-17T15:10:48;18.30;99.90
4207;DHT22;2117;47.972;7.830;2023-05-17T15:13:14;18.00;99.90
4207;DHT22;2117;47.972;7.830;2023-05-17T15:15:41;17.70;99.90
4207;DHT22;2117;47.972;7.830;2023-05-17T15:18:07;17.50;99.90
4207;DHT22;2117;47.972;7.830;2023-05-17T15:20:38;17.40;99.90
4207;DHT22;2117;47.972;7.830;2023-05-17T15:23:04;17.50;99.90
4207;DHT22;2117;47.972;7.830;2023-05-17T15:25:30;17.80;99.90
4207;DHT22;2117;47.972;7.830;2023-05-17T15:27:55;18.10;99.90
4207;DHT22;2117;47.972;7.830;2023-05-17T15:30:21;18.30;99.90
4207;DHT22;2117;47.972;7.830;2023-05-17T15:32:54;18.60;99.90
4207;DHT22;2117;47.972;7.830;2023-05-17T15:35:19;18.70;99.90
4207;DHT22;2117;47.972;7.830;2023-05-17T15:37:45;18.30;99.90
4207;DHT22;2117;47.972;7.830;2023-05-17T15:40:12;18.10;99.90
4207;DHT22;2117;47.972;7.830;2023-05-17T15:42:38;17.80;99.90
4207;DHT22;2117;47.972;7.830;2023-05-17T15:45:05;17.70;99.90
4207;DHT22;2117;47.972;7.830;2023-05-17T15:47:31;17.90;99.90
4207;DHT22;2117;47.972;7.830;2023-05-17T15:49:58;18.10;99.90
4207;DHT22;2117;47.972;7.830;2023-05-17T15:52:23;18.20;99.90
4207;DHT22;2117;47.972;7.830;2023-05-17T15:54:49;18.10;99.90
4207;DHT22;2117;47.972;7.830;2023-05-17T15:57:15;18.00;99.90
4207;DHT22;2117;47.972;7.830;2023-05-17T15:59:41;18.00;99.90
4207;DHT22;2117;47.972;7.830;2023-05-17T16:02:06;17.90;99.90
4207;DHT22;2117;47.972;7.830;2023-05-17T16:04:32;17.80;99.90
4207;DHT22;2117;47.972;7.830;2023-05-17T16:06:57;17.60;99.90
4207;DHT22;2117;47.972;7.830;2023-05-17T16:09:23;17.70;99.90
4207;DHT22;2117;47.972;7.830;2023-05-17T16:11:49;17.50;99.90
4207;DHT22;2117;47.972;7.830;2023-05-17T16:14:14;17.40;99.90
4207;DHT22;2117;47.972;7.830;2023-05-17T16:16:41;17.30;99.90
4207;DHT22;2117;47.972;7.830;2023-05-17T16:19:07;17.30;99.90
4207;DHT22;2117;47.972;7.830;2023-05-17T16:21:32;17.40;99.90
4207;DHT22;2117;47.972;7.830;2023-05-17T16:23:59;17.40;99.90
4207;DHT22;2117;47.972;7.830;2023-05-17T16:26:25;17.60;99.90
4207;DHT22;2117;47.972;7.830;2023-05-17T16:28:52;17.60;99.90
4207;DHT22;2117;47.972;7.830;2023-05-17T16:31:17;17.60;99.90
4207;DHT22;2117;47.972;7.830;2023-05-17T16:33:43;17.50;99.90
4207;DHT22;2117;47.972;7.830;2023-05-17T16:36:08;17.30;99.90
4207;DHT22;2117;47.972;7.830;2023-05-17T16:38:36;17.30;99.90
4207;DHT22;2117;47.972;7.830;2023-05-17T16:41:02;17.30;99.90
4207;DHT22;2117;47.972;7.830;2023-05-17T16:43:28;17.30;99.90
4207;DHT22;2117;47.972;7.830;2023-05-17T16:45:54;17.10;99.90
4207;DHT22;2117;47.972;7.830;2023-05-17T16:48:19;17.10;99.90
4207;DHT22;2117;47.972;7.830;2023-05-17T16:50:45;17.00;99.90
4207;DHT22;2117;47.972;7.830;2023-05-17T16:53:12;16.90;99.90
4207;DHT22;2117;47.972;7.830;2023-05-17T16:55:38;16.90;99.90
4207;DHT22;2117;47.972;7.830;2023-05-17T16:58:03;16.80;99.60
4207;DHT22;2117;47.972;7.830;2023-05-17T17:00:30;16.70;99.90
4207;DHT22;2117;47.972;7.830;2023-05-17T17:02:57;16.70;99.90
4207;DHT22;2117;47.972;7.830;2023-05-17T17:05:23;16.80;99.90
4207;DHT22;2117;47.972;7.830;2023-05-17T17:07:48;16.70;99.90
4207;DHT22;2117;47.972;7.830;2023-05-17T17:10:14;16.70;99.90
4207;DHT22;2117;47.972;7.830;2023-05-17T17:12:39;16.80;99.90
4207;DHT22;2117;47.972;7.830;2023-05-17T17:15:05;16.70;99.90
4207;DHT22;2117;47.972;7.830;2023-05-17T17:17:32;16.60;99.90
4207;DHT22;2117;47.972;7.830;2023-05-17T17:19:57;16.60;99.90
4207;DHT22;2117;47.972;7.830;2023-05-17T17:22:23;16.50;99.90
4207;DHT22;2117;47.972;7.830;2023-05-17T17:24:48;16.40;99.90
4207;DHT22;2117;47.972;7.830;2023-05-17T17:27:14;16.40;99.90
4207;DHT22;2117;47.972;7.830;2023-05-17T17:29:39;16.30;99.90
4207;DHT22;2117;47.972;7.830;2023-05-17T17:32:05;16.10;99.90
4207;DHT22;2117;47.972;7.830;2023-05-17T17:34:31;15.90;99.90
4207;DHT22;2117;47.972;7.830;2023-05-17T17:36:58;15.90;99.90
4207;DHT22;2117;47.972;7.830;2023-05-17T17:39:23;15.90;99.90
4207;DHT22;2117;47.972;7.830;2023-05-17T17:41:49;15.90;99.90
4207;DHT22;2117;47.972;7.830;2023-05-17T17:44:14;15.80;99.90
4207;DHT22;2117;47.972;7.830;2023-05-17T17:46:40;15.60;99.90
4207;DHT22;2117;47.972;7.830;2023-05-17T17:49:05;15.60;99.90
4207;DHT22;2117;47.972;7.830;2023-05-17T17:51:31;15.50;99.90
4207;DHT22;2117;47.972;7.830;2023-05-17T17:53:56;15.50;99.90
4207;DHT22;2117;47.972;7.830;2023-05-17T17:56:22;15.30;99.90
4207;DHT22;2117;47.972;7.830;2023-05-17T17:58:49;15.30;99.90
4207;DHT22;2117;47.972;7.830;2023-05-17T18:01:18;15.30;99.90
4207;DHT22;2117;47.972;7.830;2023-05-17T18:03:44;15.20;99.90
4207;DHT22;2117;47.972;7.830;2023-05-17T18:06:10;15.00;99.90
4207;DHT22;2117;47.972;7.830;2023-05-17T18:08:35;15.00;99.90
4207;DHT22;2117;47.972;7.830;2023-05-17T18:11:01;14.90;99.90
4207;DHT22;2117;47.972;7.830;2023-05-17T18:13:26;14.80;99.90
4207;DHT22;2117;47.972;7.830;2023-05-17T18:15:52;14.60;99.90
4207;DHT22;2117;47.972;7.830;2023-05-17T18:18:17;14.60;99.90
4207;DHT22;2117;47.972;7.830;2023-05-17T18:20:43;14.60;99.90
4207;DHT22;2117;47.972;7.830;2023-05-17T18:23:09;14.50;99.90
4207;DHT22;2117;47.972;7.830;2023-05-17T18:25:34;14.50;99.90
4207;DHT22;2117;47.972;7.830;2023-05-17T18:28:00;14.40;99.90
4207;DHT22;2117;47.972;7.830;2023-05-17T18:30:26;14.40;99.90
4207;DHT22;2117;47.972;7.830;2023-05-17T18:32:52;14.40;99.90
4207;DHT22;2117;47.972;7.830;2023-05-17T18:35:17;14.40;99.90
4207;DHT22;2117;47.972;7.830;2023-05-17T18:37:43;14.40;99.90
4207;DHT22;2117;47.972;7.830;2023-05-17T18:40:09;14.40;99.90
4207;DHT22;2117;47.972;7.830;2023-05-17T18:42:35;14.30;99.90
4207;DHT22;2117;47.972;7.830;2023-05-17T18:45:00;14.30;99.90
4207;DHT22;2117;47.972;7.830;2023-05-17T18:47:26;14.20;99.90
4207;DHT22;2117;47.972;7.830;2023-05-17T18:49:52;14.20;99.90
4207;DHT22;2117;47.972;7.830;2023-05-17T18:52:18;14.10;99.90
4207;DHT22;2117;47.972;7.830;2023-05-17T18:54:43;14.10;99.90
4207;DHT22;2117;47.972;7.830;2023-05-17T18:57:10;14.00;99.90
4207;DHT22;2117;47.972;7.830;2023-05-17T18:59:38;14.00;99.90
4207;DHT22;2117;47.972;7.830;2023-05-17T19:02:03;13.90;99.90
4207;DHT22;2117;47.972;7.830;2023-05-17T19:04:30;13.90;99.90
4207;DHT22;2117;47.972;7.830;2023-05-17T19:06:55;13.70;99.90
4207;DHT22;2117;47.972;7.830;2023-05-17T19:09:21;13.70;99.90
4207;DHT22;2117;47.972;7.830;2023-05-17T19:11:46;13.60;99.90